Time;durP1;ratioP1;P1;durP2;ratioP2;P2;SDS_P1;SDS_P2;PMS_P1;PMS_P2;Temp;Humidity;BMP_temperature;BMP_pressure;BME280_temperature;BME280_humidity;BME280_pressure;Samples;Min_cycle;Max_cycle;Signal;HPM_P1;HPM_P2
2021/03/26 00:01:41;;;;;;;;;;;9.20;99.90;;;;;;5087930;28;19920;-75
2021/03/26 00:04:07;;;;;;;;;;;9.20;99.90;;;;;;5090587;28;19912;-76
2021/03/26 00:06:34;;;;;;;;;;;9.20;99.90;;;;;;5088214;28;19921;-76
2021/03/26 00:08:59;;;;;;;;;;;9.20;99.90;;;;;;5090603;28;19920;-76
2021/03/26 00:11:27;;;;;;;;;;;9.20;99.90;;;;;;5090912;28;19923;-76
2021/03/26 00:13:52;;;;;;;;;;;9.20;99.90;;;;;;5094742;28;19944;-76
2021/03/26 00:16:20;;;;;;;;;;;9.20;99.90;;;;;;5089313;28;19958;-76
2021/03/26 00:18:48;;;;;;;;;;;9.10;99.90;;;;;;5089918;28;20010;-76
2021/03/26 00:21:16;;;;;;;;;;;9.10;99.90;;;;;;5093645;28;19930;-76
2021/03/26 00:23:42;;;;;;;;;;;9.10;99.90;;;;;;5098025;28;19922;-76
2021/03/26 00:26:10;;;;;;;;;;;9.10;99.90;;;;;;5090157;28;19923;-76
2021/03/26 00:28:35;;;;;;;;;;;9.10;99.90;;;;;;5091873;28;19919;-76
2021/03/26 00:31:03;;;;;;;;;;;9.10;99.90;;;;;;5106531;28;20379;-75
2021/03/26 00:33:29;;;;;;;;;;;9.10;99.90;;;;;;5094087;28;19986;-76
2021/03/26 00:35:54;;;;;;;;;;;9.10;99.90;;;;;;5094343;28;19962;-76
2021/03/26 00:38:21;;;;;;;;;;;9.10;99.90;;;;;;5092291;28;19930;-76
2021/03/26 00:40:49;;;;;;;;;;;9.10;99.90;;;;;;5104800;28;19916;-76
2021/03/26 00:43:16;;;;;;;;;;;9.10;99.90;;;;;;5095247;28;19985;-75
2021/03/26 00:45:42;;;;;;;;;;;9.10;99.90;;;;;;5095162;28;19924;-76
2021/03/26 00:48:07;;;;;;;;;;;9.10;99.90;;;;;;5092744;28;19923;-76
2021/03/26 00:50:43;;;;;;;;;;;9.10;99.90;;;;;;5095574;28;19945;-76
2021/03/26 00:53:28;;;;;;;;;;;9.10;99.90;;;;;;5093580;28;19995;-76
2021/03/26 00:55:54;;;;;;;;;;;9.10;99.90;;;;;;5095386;28;19920;-76
2021/03/26 00:58:19;;;;;;;;;;;9.10;99.90;;;;;;5092779;28;19924;-76
2021/03/26 01:00:45;;;;;;;;;;;9.10;99.90;;;;;;5078839;28;19920;-76
2021/03/26 01:03:13;;;;;;;;;;;9.10;99.90;;;;;;5090844;28;19974;-75
2021/03/26 01:05:40;;;;;;;;;;;9.10;99.90;;;;;;5096514;28;20573;-76
2021/03/26 01:08:08;;;;;;;;;;;9.10;99.90;;;;;;5096864;28;19916;-76
2021/03/26 01:10:36;;;;;;;;;;;9.10;99.90;;;;;;5089582;28;19912;-76
2021/03/26 01:13:02;;;;;;;;;;;9.10;99.90;;;;;;5090896;28;19911;-76
2021/03/26 01:15:28;;;;;;;;;;;9.10;99.90;;;;;;5088817;28;20571;-76
2021/03/26 01:17:54;;;;;;;;;;;9.00;99.90;;;;;;5095889;28;19923;-76
2021/03/26 01:20:21;;;;;;;;;;;9.10;99.90;;;;;;5095755;28;20521;-76
2021/03/26 01:22:52;;;;;;;;;;;9.10;99.90;;;;;;5093490;28;19912;-75
2021/03/26 01:25:18;;;;;;;;;;;9.10;99.90;;;;;;5092963;28;20284;-75
2021/03/26 01:27:44;;;;;;;;;;;9.00;99.90;;;;;;5093280;28;19912;-76
2021/03/26 01:30:13;;;;;;;;;;;9.10;99.90;;;;;;5077422;28;19912;-76
2021/03/26 01:32:41;;;;;;;;;;;9.10;99.90;;;;;;5107281;27;19924;-76
2021/03/26 01:35:08;;;;;;;;;;;9.10;99.90;;;;;;5092740;28;19978;-76
2021/03/26 01:37:36;;;;;;;;;;;9.10;99.90;;;;;;5093992;28;19926;-76
2021/03/26 01:40:08;;;;;;;;;;;9.10;99.90;;;;;;5091801;28;19923;-76
2021/03/26 01:42:34;;;;;;;;;;;9.10;99.90;;;;;;5091961;28;19920;-76
2021/03/26 01:45:00;;;;;;;;;;;9.10;99.90;;;;;;5077565;28;19920;-76
2021/03/26 01:47:26;;;;;;;;;;;9.10;99.90;;;;;;5083578;28;20469;-76
2021/03/26 01:49:54;;;;;;;;;;;9.00;99.90;;;;;;5080927;28;20002;-76
2021/03/26 01:52:20;;;;;;;;;;;9.00;99.90;;;;;;5082238;28;20270;-76
2021/03/26 01:54:45;;;;;;;;;;;9.00;99.90;;;;;;5094781;28;20053;-76
2021/03/26 01:57:11;;;;;;;;;;;9.10;99.90;;;;;;5094916;28;20249;-76
2021/03/26 01:59:36;;;;;;;;;;;9.10;99.90;;;;;;5088892;28;20361;-76
2021/03/26 02:02:06;;;;;;;;;;;9.10;99.90;;;;;;5077699;28;19969;-76
2021/03/26 02:04:39;;;;;;;;;;;9.10;99.90;;;;;;5088273;28;19920;-75
2021/03/26 02:07:04;;;;;;;;;;;9.20;99.90;;;;;;5077118;28;19936;-76
2021/03/26 02:09:31;;;;;;;;;;;9.20;99.90;;;;;;5076141;28;19917;-76
2021/03/26 02:11:58;;;;;;;;;;;9.20;99.90;;;;;;5078377;28;20018;-76
2021/03/26 02:14:25;;;;;;;;;;;9.30;99.90;;;;;;5077186;28;19929;-76
2021/03/26 02:16:51;;;;;;;;;;;9.40;99.90;;;;;;5077014;28;19916;-76
2021/03/26 02:19:19;;;;;;;;;;;9.40;99.90;;;;;;5091997;27;20467;-76
2021/03/26 02:21:45;;;;;;;;;;;9.50;99.90;;;;;;5085951;28;19915;-76
2021/03/26 02:24:15;;;;;;;;;;;9.60;99.90;;;;;;5078026;28;20369;-76
2021/03/26 02:26:42;;;;;;;;;;;9.60;99.90;;;;;;5080101;28;20513;-76
2021/03/26 02:29:31;;;;;;;;;;;9.70;99.90;;;;;;5075595;28;19992;-76
2021/03/26 02:31:56;;;;;;;;;;;9.70;99.90;;;;;;5089175;27;20160;-76
2021/03/26 02:34:22;;;;;;;;;;;9.70;99.90;;;;;;5076629;28;20293;-76
2021/03/26 02:36:49;;;;;;;;;;;9.80;99.90;;;;;;5079797;28;19916;-75
2021/03/26 02:39:20;;;;;;;;;;;9.80;99.90;;;;;;5080797;28;19916;-76
2021/03/26 02:41:49;;;;;;;;;;;9.80;99.90;;;;;;5074789;28;19971;-76
2021/03/26 02:44:30;;;;;;;;;;;9.80;99.90;;;;;;5091506;27;19932;-76
2021/03/26 02:46:58;;;;;;;;;;;9.80;99.90;;;;;;5092734;27;19972;-75
2021/03/26 02:49:36;;;;;;;;;;;9.80;99.90;;;;;;5087451;28;19944;-75
2021/03/26 02:52:10;;;;;;;;;;;9.70;99.90;;;;;;5080283;28;21680;-75
2021/03/26 02:54:45;;;;;;;;;;;9.70;99.90;;;;;;5085967;28;19976;-76
2021/03/26 02:57:12;;;;;;;;;;;9.80;99.90;;;;;;5077142;28;19912;-76
2021/03/26 02:59:41;;;;;;;;;;;9.70;99.90;;;;;;5078238;28;19958;-76
2021/03/26 03:02:08;;;;;;;;;;;9.70;99.90;;;;;;5074950;28;19916;-76
2021/03/26 03:04:42;;;;;;;;;;;9.70;99.90;;;;;;5082202;28;20330;-75
2021/03/26 03:07:46;;;;;;;;;;;9.70;99.90;;;;;;5082635;28;19920;-76
2021/03/26 03:10:22;;;;;;;;;;;9.70;99.90;;;;;;5050994;28;19921;-76
2021/03/26 03:12:50;;;;;;;;;;;9.70;99.90;;;;;;5036558;28;19920;-76
2021/03/26 03:15:18;;;;;;;;;;;9.60;99.90;;;;;;5035006;28;19963;-76
2021/03/26 03:18:12;;;;;;;;;;;9.60;99.90;;;;;;5051871;28;20436;-76
2021/03/26 03:20:39;;;;;;;;;;;9.50;99.90;;;;;;5023135;28;19920;-76
2021/03/26 03:23:19;;;;;;;;;;;9.50;99.90;;;;;;5024512;28;19920;-75
2021/03/26 03:25:45;;;;;;;;;;;9.50;99.90;;;;;;5023110;28;19963;-75
2021/03/26 03:28:11;;;;;;;;;;;9.50;99.90;;;;;;5030404;28;19952;-76
2021/03/26 03:30:36;;;;;;;;;;;9.50;99.90;;;;;;5035228;28;19924;-76
2021/03/26 03:33:13;;;;;;;;;;;9.50;99.90;;;;;;5054031;28;20621;-75
2021/03/26 03:35:39;;;;;;;;;;;9.50;99.90;;;;;;5034344;28;20337;-76
2021/03/26 03:38:13;;;;;;;;;;;9.40;99.90;;;;;;5050910;28;19954;-76
2021/03/26 03:40:43;;;;;;;;;;;9.40;99.90;;;;;;5057182;28;19963;-76
2021/03/26 03:43:09;;;;;;;;;;;9.40;99.90;;;;;;5090402;28;19928;-76
2021/03/26 03:45:37;;;;;;;;;;;9.40;99.90;;;;;;5092216;28;19920;-76
2021/03/26 03:48:07;;;;;;;;;;;9.40;99.90;;;;;;5092243;28;19919;-76
2021/03/26 03:50:36;;;;;;;;;;;9.30;99.90;;;;;;5105524;27;19934;-76
2021/03/26 03:53:05;;;;;;;;;;;9.30;99.90;;;;;;5088377;28;19911;-76
2021/03/26 03:55:35;;;;;;;;;;;9.20;99.90;;;;;;5079021;28;19912;-76
2021/03/26 03:58:03;;;;;;;;;;;9.20;99.90;;;;;;5087578;28;19912;-76
2021/03/26 04:00:33;;;;;;;;;;;9.20;99.90;;;;;;5092895;28;19912;-76
2021/03/26 04:03:07;;;;;;;;;;;9.30;99.90;;;;;;5074651;28;20050;-76
2021/03/26 04:05:36;;;;;;;;;;;9.20;99.90;;;;;;5074884;28;19928;-76
2021/03/26 04:08:27;;;;;;;;;;;9.20;99.90;;;;;;5074318;28;19916;-76
2021/03/26 04:11:13;;;;;;;;;;;9.20;99.90;;;;;;5053441;28;20006;-75
2021/03/26 04:13:43;;;;;;;;;;;9.20;99.90;;;;;;5074158;28;20502;-75
2021/03/26 04:16:09;;;;;;;;;;;9.20;99.90;;;;;;5072410;28;19916;-76
2021/03/26 04:18:36;;;;;;;;;;;9.20;99.90;;;;;;5075904;28;19920;-76
2021/03/26 04:21:07;;;;;;;;;;;9.20;99.90;;;;;;5075068;28;19917;-76
2021/03/26 04:23:38;;;;;;;;;;;9.20;99.90;;;;;;5074682;28;19916;-76
2021/03/26 04:26:17;;;;;;;;;;;9.20;99.90;;;;;;5060018;28;19935;-75
2021/03/26 04:28:44;;;;;;;;;;;9.20;99.90;;;;;;5060864;28;19931;-76
2021/03/26 04:31:10;;;;;;;;;;;9.20;99.90;;;;;;5076881;28;20005;-76
2021/03/26 04:33:36;;;;;;;;;;;9.30;99.90;;;;;;5090949;28;19931;-76
2021/03/26 04:36:02;;;;;;;;;;;9.30;99.90;;;;;;5086229;28;19912;-76
2021/03/26 04:38:36;;;;;;;;;;;9.30;99.90;;;;;;5085551;28;19920;-76
2021/03/26 04:41:20;;;;;;;;;;;9.30;99.90;;;;;;5089065;28;20320;-76
2021/03/26 04:43:58;;;;;;;;;;;9.30;99.90;;;;;;5085391;28;19931;-76
2021/03/26 04:46:24;;;;;;;;;;;9.30;99.90;;;;;;5091292;28;20014;-76
2021/03/26 04:49:12;;;;;;;;;;;9.30;99.90;;;;;;5089383;28;20387;-76
2021/03/26 04:51:39;;;;;;;;;;;9.30;99.90;;;;;;5073136;28;20257;-76
2021/03/26 04:54:16;;;;;;;;;;;9.20;99.90;;;;;;5074501;28;20011;-76
2021/03/26 04:56:45;;;;;;;;;;;9.20;99.90;;;;;;5076133;28;19923;-76
2021/03/26 04:59:13;;;;;;;;;;;9.20;99.90;;;;;;5096324;28;20010;-76
2021/03/26 05:01:39;;;;;;;;;;;9.20;99.90;;;;;;5104955;28;19920;-76
2021/03/26 05:04:06;;;;;;;;;;;9.20;99.90;;;;;;5081248;28;19921;-76
2021/03/26 05:06:34;;;;;;;;;;;9.20;99.90;;;;;;5078836;28;20418;-76
2021/03/26 05:09:09;;;;;;;;;;;9.10;99.90;;;;;;5085211;28;19923;-76
2021/03/26 05:11:37;;;;;;;;;;;9.10;99.90;;;;;;5077799;28;19919;-76
2021/03/26 05:14:03;;;;;;;;;;;9.10;99.90;;;;;;5089720;27;19977;-76
2021/03/26 05:16:32;;;;;;;;;;;9.10;99.90;;;;;;5090755;28;20463;-76
2021/03/26 05:19:18;;;;;;;;;;;9.00;99.90;;;;;;5071527;28;19928;-76
2021/03/26 05:21:49;;;;;;;;;;;9.00;99.90;;;;;;5076080;28;19924;-76
2021/03/26 05:24:29;;;;;;;;;;;9.00;99.90;;;;;;5106642;28;19916;-76
2021/03/26 05:26:54;;;;;;;;;;;9.00;99.90;;;;;;5078827;28;19927;-76
2021/03/26 05:29:22;;;;;;;;;;;9.00;99.90;;;;;;5076998;28;19931;-76
2021/03/26 05:32:07;;;;;;;;;;;8.90;99.90;;;;;;5077896;28;20226;-76
2021/03/26 05:34:34;;;;;;;;;;;8.90;99.90;;;;;;5077644;28;20610;-76
2021/03/26 05:37:06;;;;;;;;;;;8.80;99.90;;;;;;5063244;28;19978;-76
2021/03/26 05:39:32;;;;;;;;;;;8.80;99.90;;;;;;5091363;28;20304;-76
2021/03/26 05:42:04;;;;;;;;;;;8.70;99.90;;;;;;5096207;28;19969;-76
2021/03/26 05:44:38;;;;;;;;;;;8.70;99.90;;;;;;5089733;28;19930;-76
2021/03/26 05:47:22;;;;;;;;;;;8.70;99.90;;;;;;5094982;28;19942;-76
2021/03/26 05:50:08;;;;;;;;;;;8.70;99.90;;;;;;5093219;28;19920;-76
2021/03/26 05:52:37;;;;;;;;;;;8.70;99.90;;;;;;5095091;28;19916;-76
2021/03/26 05:55:05;;;;;;;;;;;8.70;99.90;;;;;;5077365;28;19920;-76
2021/03/26 05:57:50;;;;;;;;;;;8.80;99.90;;;;;;5076613;28;19927;-76
2021/03/26 06:00:27;;;;;;;;;;;8.80;99.90;;;;;;5077647;28;19919;-76
2021/03/26 06:03:11;;;;;;;;;;;8.70;99.90;;;;;;5092992;27;19924;-76
2021/03/26 06:05:43;;;;;;;;;;;8.70;99.90;;;;;;5077125;28;19931;-76
2021/03/26 06:08:42;;;;;;;;;;;8.80;99.90;;;;;;5062236;28;20457;-76
2021/03/26 06:11:19;;;;;;;;;;;8.80;99.90;;;;;;5036769;28;19920;-76
2021/03/26 06:14:03;;;;;;;;;;;8.80;99.90;;;;;;5088772;28;19920;-76
2021/03/26 06:16:37;;;;;;;;;;;8.80;99.90;;;;;;5084705;28;19912;-76
2021/03/26 06:19:05;;;;;;;;;;;8.80;99.90;;;;;;5079938;28;19919;-76
2021/03/26 06:21:30;;;;;;;;;;;8.80;99.90;;;;;;5081939;28;19920;-76
2021/03/26 06:24:15;;;;;;;;;;;8.80;99.90;;;;;;5075555;28;20315;-76
2021/03/26 06:26:55;;;;;;;;;;;8.80;99.90;;;;;;5077618;28;19950;-76
2021/03/26 06:29:28;;;;;;;;;;;8.90;99.90;;;;;;5076193;28;19948;-76
2021/03/26 06:32:12;;;;;;;;;;;8.90;99.90;;;;;;5076954;28;19927;-76
2021/03/26 06:34:55;;;;;;;;;;;8.90;99.90;;;;;;5075928;28;20027;-76
2021/03/26 06:37:20;;;;;;;;;;;9.00;99.90;;;;;;5088442;28;19955;-76
2021/03/26 06:39:46;;;;;;;;;;;9.00;99.90;;;;;;5078427;28;20323;-76
2021/03/26 06:42:32;;;;;;;;;;;9.10;99.90;;;;;;5076219;28;20565;-76
2021/03/26 06:45:05;;;;;;;;;;;9.10;99.90;;;;;;5108536;27;20407;-76
2021/03/26 06:47:35;;;;;;;;;;;9.10;99.90;;;;;;5078730;28;19927;-76
2021/03/26 06:50:12;;;;;;;;;;;9.20;99.90;;;;;;5074473;28;19916;-76
2021/03/26 06:52:38;;;;;;;;;;;9.20;99.90;;;;;;5100967;27;19969;-76
2021/03/26 06:55:26;;;;;;;;;;;9.20;99.90;;;;;;5090850;28;19927;-76
2021/03/26 06:58:14;;;;;;;;;;;9.20;99.90;;;;;;5060308;28;19920;-76
2021/03/26 07:00:59;;;;;;;;;;;9.20;99.90;;;;;;5074101;28;19920;-76
2021/03/26 07:03:34;;;;;;;;;;;9.20;99.90;;;;;;5074098;28;19920;-76
2021/03/26 07:06:20;;;;;;;;;;;9.20;99.90;;;;;;5093510;28;20015;-76
2021/03/26 07:08:46;;;;;;;;;;;9.20;99.90;;;;;;5087915;28;19938;-76
2021/03/26 07:11:14;;;;;;;;;;;9.20;99.90;;;;;;5091748;27;20530;-76
2021/03/26 07:13:48;;;;;;;;;;;9.20;99.90;;;;;;5073814;28;19931;-76
2021/03/26 07:16:17;;;;;;;;;;;9.20;99.90;;;;;;5086515;28;19926;-76
2021/03/26 07:19:02;;;;;;;;;;;9.20;99.90;;;;;;5081505;28;19920;-76
2021/03/26 07:21:54;;;;;;;;;;;9.20;99.90;;;;;;5084943;28;19913;-76
2021/03/26 07:24:24;;;;;;;;;;;9.20;99.90;;;;;;5091409;28;19924;-76
2021/03/26 07:26:52;;;;;;;;;;;9.30;99.90;;;;;;5075916;28;20450;-76
2021/03/26 07:29:29;;;;;;;;;;;9.30;99.90;;;;;;5081040;28;19951;-76
2021/03/26 07:32:14;;;;;;;;;;;9.40;99.90;;;;;;5092524;28;21736;-76
2021/03/26 07:34:49;;;;;;;;;;;9.40;99.90;;;;;;5091310;28;19920;-76
2021/03/26 07:37:17;;;;;;;;;;;9.40;99.90;;;;;;5087113;28;19926;-76
2021/03/26 07:39:47;;;;;;;;;;;9.50;99.90;;;;;;5074690;28;19924;-76
2021/03/26 07:42:15;;;;;;;;;;;9.50;99.90;;;;;;5075034;28;19916;-76
2021/03/26 07:45:00;;;;;;;;;;;9.60;99.90;;;;;;5077921;28;20403;-76
2021/03/26 07:47:34;;;;;;;;;;;9.60;99.90;;;;;;5075263;28;19923;-75
2021/03/26 07:50:03;;;;;;;;;;;9.70;99.90;;;;;;5075246;28;19952;-76
2021/03/26 07:52:31;;;;;;;;;;;9.70;99.90;;;;;;5085069;28;19924;-76
2021/03/26 07:55:16;;;;;;;;;;;9.80;99.90;;;;;;5074685;28;19927;-76
2021/03/26 07:57:50;;;;;;;;;;;9.80;99.90;;;;;;5074226;28;19920;-76
2021/03/26 08:00:19;;;;;;;;;;;9.90;99.90;;;;;;5075969;28;20011;-76
2021/03/26 08:03:03;;;;;;;;;;;10.00;99.90;;;;;;5074574;28;19946;-76
2021/03/26 08:05:29;;;;;;;;;;;10.10;99.90;;;;;;5075013;28;19928;-76
2021/03/26 08:08:14;;;;;;;;;;;10.10;99.90;;;;;;5091919;28;20057;-77
2021/03/26 08:10:42;;;;;;;;;;;10.20;99.90;;;;;;5094340;28;20029;-76
2021/03/26 08:13:26;;;;;;;;;;;10.30;99.90;;;;;;5088653;28;19916;-76
2021/03/26 08:16:05;;;;;;;;;;;10.40;99.90;;;;;;5087140;28;20007;-76
2021/03/26 08:18:52;;;;;;;;;;;10.50;99.90;;;;;;5092227;28;19916;-76
2021/03/26 08:21:18;;;;;;;;;;;10.50;99.90;;;;;;5074915;28;19930;-76
2021/03/26 08:24:02;;;;;;;;;;;10.60;99.90;;;;;;5074609;28;19912;-76
2021/03/26 08:26:30;;;;;;;;;;;10.70;99.90;;;;;;5093642;27;19936;-76
2021/03/26 08:28:59;;;;;;;;;;;10.80;99.90;;;;;;5081267;28;19927;-76
2021/03/26 08:31:24;;;;;;;;;;;10.90;99.90;;;;;;5074544;28;19920;-76
2021/03/26 08:33:55;;;;;;;;;;;11.00;99.90;;;;;;5081623;28;19920;-76
2021/03/26 08:36:25;;;;;;;;;;;11.10;99.90;;;;;;5091100;28;19931;-76
2021/03/26 08:38:54;;;;;;;;;;;11.20;99.90;;;;;;5088466;28;19916;-76
2021/03/26 08:41:25;;;;;;;;;;;11.40;99.90;;;;;;5090125;28;19921;-76
2021/03/26 08:43:51;;;;;;;;;;;11.40;99.90;;;;;;5074249;28;19919;-76
2021/03/26 08:46:20;;;;;;;;;;;11.50;99.90;;;;;;5076259;28;19916;-76
2021/03/26 08:48:51;;;;;;;;;;;11.50;99.90;;;;;;5077836;28;19920;-76
2021/03/26 08:51:20;;;;;;;;;;;11.60;99.90;;;;;;5080860;28;19994;-76
2021/03/26 08:53:54;;;;;;;;;;;11.70;99.90;;;;;;5091781;28;20293;-76
2021/03/26 08:56:22;;;;;;;;;;;11.70;99.90;;;;;;5088336;28;19912;-76
2021/03/26 08:58:56;;;;;;;;;;;11.80;98.90;;;;;;5074053;28;19916;-76
2021/03/26 09:01:26;;;;;;;;;;;11.80;99.90;;;;;;5083334;28;19994;-76
2021/03/26 09:03:57;;;;;;;;;;;11.90;97.40;;;;;;5078076;28;19924;-76
2021/03/26 09:06:23;;;;;;;;;;;12.00;99.20;;;;;;5090653;28;19924;-76
2021/03/26 09:08:51;;;;;;;;;;;12.00;98.60;;;;;;5079441;28;19930;-77
2021/03/26 09:11:34;;;;;;;;;;;12.00;97.40;;;;;;5080964;28;19920;-76
2021/03/26 09:14:14;;;;;;;;;;;12.10;97.10;;;;;;5081752;28;19912;-77
2021/03/26 09:16:40;;;;;;;;;;;12.10;95.90;;;;;;5091273;28;19981;-77
2021/03/26 09:19:24;;;;;;;;;;;12.10;95.10;;;;;;5093707;28;19915;-77
2021/03/26 09:22:02;;;;;;;;;;;12.10;94.90;;;;;;5094602;28;20230;-83
2021/03/26 09:24:31;;;;;;;;;;;12.10;95.50;;;;;;5080040;28;19977;-83
2021/03/26 09:26:59;;;;;;;;;;;12.20;98.50;;;;;;5098201;28;19927;-77
2021/03/26 09:29:30;;;;;;;;;;;12.30;98.40;;;;;;5091096;28;19919;-77
2021/03/26 09:32:06;;;;;;;;;;;12.40;95.40;;;;;;5076834;28;20332;-76
2021/03/26 09:34:32;;;;;;;;;;;12.50;92.80;;;;;;5093183;27;20332;-77
2021/03/26 09:37:08;;;;;;;;;;;12.60;96.60;;;;;;5089798;28;21738;-77
2021/03/26 09:39:36;;;;;;;;;;;12.70;95.50;;;;;;5093426;27;19927;-76
2021/03/26 09:42:24;;;;;;;;;;;12.70;93.40;;;;;;5081334;28;19916;-77
2021/03/26 09:44:56;;;;;;;;;;;12.80;96.30;;;;;;5078178;28;20077;-83
2021/03/26 09:47:26;;;;;;;;;;;13.00;93.20;;;;;;5077701;28;19920;-83
2021/03/26 09:49:52;;;;;;;;;;;13.00;92.00;;;;;;5078351;28;19974;-78
2021/03/26 09:52:23;;;;;;;;;;;13.10;92.10;;;;;;5077521;28;20519;-77
2021/03/26 09:54:54;;;;;;;;;;;13.20;92.50;;;;;;5093877;27;20004;-77
2021/03/26 09:57:22;;;;;;;;;;;13.20;90.80;;;;;;5078455;28;19926;-77
2021/03/26 09:59:59;;;;;;;;;;;13.30;92.40;;;;;;5079717;28;19921;-77
2021/03/26 10:02:40;;;;;;;;;;;13.40;91.00;;;;;;5076873;28;19954;-77
2021/03/26 10:05:20;;;;;;;;;;;13.50;94.70;;;;;;5080304;28;19940;-77
2021/03/26 10:07:53;;;;;;;;;;;13.60;91.70;;;;;;5078202;28;19920;-76
2021/03/26 10:12:52;;;;;;;;;;;13.80;89.10;;;;;;5075673;28;19938;-77
2021/03/26 10:15:25;;;;;;;;;;;13.80;88.80;;;;;;5075617;28;19969;-76
2021/03/26 10:17:59;;;;;;;;;;;13.90;82.90;;;;;;5088620;28;19917;-75
2021/03/26 10:20:38;;;;;;;;;;;14.10;91.40;;;;;;5105482;27;19978;-76
2021/03/26 10:23:03;;;;;;;;;;;14.10;84.70;;;;;;5091464;28;19911;-77
2021/03/26 10:25:29;;;;;;;;;;;14.30;85.70;;;;;;5091676;28;19931;-76
2021/03/26 10:27:54;;;;;;;;;;;14.40;85.50;;;;;;5091794;28;19955;-77
2021/03/26 10:30:26;;;;;;;;;;;14.40;81.70;;;;;;5091018;28;19991;-77
2021/03/26 10:32:51;;;;;;;;;;;14.50;84.30;;;;;;5094040;28;19920;-84
2021/03/26 10:35:21;;;;;;;;;;;14.50;81.40;;;;;;5110280;27;19920;-84
2021/03/26 10:37:54;;;;;;;;;;;14.60;79.70;;;;;;5091525;27;19934;-76
2021/03/26 10:40:22;;;;;;;;;;;14.60;80.50;;;;;;5089450;28;20458;-77
2021/03/26 10:42:48;;;;;;;;;;;14.60;78.70;;;;;;5090594;28;19915;-77
2021/03/26 10:45:28;;;;;;;;;;;14.60;74.90;;;;;;5089753;28;19987;-77
2021/03/26 10:47:57;;;;;;;;;;;14.60;77.90;;;;;;5092648;28;19944;-77
2021/03/26 10:50:39;;;;;;;;;;;14.70;80.00;;;;;;5090310;28;19913;-77
2021/03/26 10:53:10;;;;;;;;;;;14.80;78.00;;;;;;5086017;28;20361;-77
2021/03/26 10:55:40;;;;;;;;;;;14.90;81.10;;;;;;5089952;28;19920;-77
2021/03/26 10:58:12;;;;;;;;;;;15.10;76.60;;;;;;5106738;27;19913;-77
2021/03/26 11:00:43;;;;;;;;;;;15.30;76.90;;;;;;5095312;28;20002;-77
2021/03/26 11:03:19;;;;;;;;;;;15.30;70.40;;;;;;5089123;28;20047;-77
2021/03/26 11:05:45;;;;;;;;;;;15.40;77.70;;;;;;5092592;28;19928;-77
2021/03/26 11:08:25;;;;;;;;;;;15.50;75.20;;;;;;5093980;28;19927;-77
2021/03/26 11:11:00;;;;;;;;;;;15.60;75.50;;;;;;5089207;28;19923;-77
2021/03/26 11:13:25;;;;;;;;;;;15.80;72.80;;;;;;5091558;28;20006;-77
2021/03/26 11:15:53;;;;;;;;;;;16.00;72.20;;;;;;5092182;28;20401;-77
2021/03/26 11:18:20;;;;;;;;;;;16.10;69.10;;;;;;5109593;27;19912;-77
2021/03/26 11:20:48;;;;;;;;;;;16.20;68.40;;;;;;5091364;28;20022;-77
2021/03/26 11:23:17;;;;;;;;;;;16.40;68.00;;;;;;5094750;28;19916;-77
2021/03/26 11:25:46;;;;;;;;;;;16.50;67.90;;;;;;5089191;28;19931;-77
2021/03/26 11:28:14;;;;;;;;;;;16.50;65.40;;;;;;5089770;28;19981;-77
2021/03/26 11:30:42;;;;;;;;;;;16.50;67.30;;;;;;5093819;28;19917;-75
2021/03/26 11:33:11;;;;;;;;;;;16.40;65.70;;;;;;5108538;27;19913;-77
2021/03/26 11:35:36;;;;;;;;;;;16.30;65.50;;;;;;5092327;28;19934;-77
2021/03/26 11:38:08;;;;;;;;;;;16.20;67.10;;;;;;5120723;27;19913;-76
2021/03/26 11:40:37;;;;;;;;;;;16.00;67.50;;;;;;5092726;28;19931;-77
2021/03/26 11:43:21;;;;;;;;;;;16.00;66.70;;;;;;5118705;27;19923;-77
2021/03/26 11:45:48;;;;;;;;;;;16.20;67.90;;;;;;5091300;28;19920;-75
2021/03/26 11:48:34;;;;;;;;;;;16.30;67.80;;;;;;5074698;28;20015;-77
2021/03/26 11:51:07;;;;;;;;;;;16.40;70.00;;;;;;5083673;28;19912;-77
2021/03/26 11:53:34;;;;;;;;;;;16.50;69.70;;;;;;5106688;27;19998;-77
2021/03/26 11:56:06;;;;;;;;;;;16.60;71.50;;;;;;5122545;27;19927;-77
2021/03/26 11:58:36;;;;;;;;;;;16.70;68.10;;;;;;5089222;28;20270;-77
2021/03/26 12:01:04;;;;;;;;;;;16.80;66.40;;;;;;5078466;28;19920;-78
2021/03/26 12:03:42;;;;;;;;;;;16.80;66.20;;;;;;5087686;28;19912;-78
2021/03/26 12:06:13;;;;;;;;;;;16.90;69.30;;;;;;5093362;28;19927;-78
2021/03/26 12:09:11;;;;;;;;;;;17.00;63.50;;;;;;5093591;28;20003;-78
2021/03/26 12:11:37;;;;;;;;;;;17.10;66.60;;;;;;5054085;28;20633;-78
2021/03/26 12:14:03;;;;;;;;;;;17.40;63.70;;;;;;5092747;28;19912;-78
2021/03/26 12:16:29;;;;;;;;;;;17.40;62.30;;;;;;5093594;28;19919;-78
2021/03/26 12:18:58;;;;;;;;;;;17.70;66.20;;;;;;5095924;28;19920;-78
2021/03/26 12:21:42;;;;;;;;;;;17.70;64.00;;;;;;5091691;28;20314;-78
2021/03/26 12:24:08;;;;;;;;;;;17.60;61.90;;;;;;5092198;28;19930;-78
2021/03/26 12:26:40;;;;;;;;;;;17.70;60.10;;;;;;5091826;28;19915;-78
2021/03/26 12:29:10;;;;;;;;;;;17.70;64.10;;;;;;5093861;28;20176;-78
2021/03/26 12:31:43;;;;;;;;;;;17.80;61.00;;;;;;5090075;28;19931;-78
2021/03/26 12:34:29;;;;;;;;;;;17.90;59.70;;;;;;5088324;28;19920;-77
2021/03/26 12:37:00;;;;;;;;;;;18.00;65.30;;;;;;5076160;28;19923;-77
2021/03/26 12:39:31;;;;;;;;;;;18.00;62.10;;;;;;5097772;28;19979;-78
2021/03/26 12:41:59;;;;;;;;;;;18.20;63.20;;;;;;5110711;27;19920;-78
2021/03/26 12:44:31;;;;;;;;;;;18.40;64.20;;;;;;5093296;28;20041;-78
2021/03/26 12:47:02;;;;;;;;;;;18.60;60.30;;;;;;5094828;28;19968;-78
2021/03/26 12:49:34;;;;;;;;;;;18.70;59.70;;;;;;5091656;28;20027;-78
2021/03/26 12:52:01;;;;;;;;;;;18.80;60.90;;;;;;5093595;28;19916;-78
2021/03/26 12:54:40;;;;;;;;;;;18.80;57.70;;;;;;5083856;28;19912;-77
2021/03/26 12:57:09;;;;;;;;;;;18.80;59.90;;;;;;5088213;28;19920;-75
2021/03/26 12:59:35;;;;;;;;;;;18.80;58.40;;;;;;5093216;28;19942;-77
2021/03/26 13:02:03;;;;;;;;;;;18.60;58.50;;;;;;5126777;27;20365;-77
2021/03/26 13:04:58;;;;;;;;;;;18.50;59.20;;;;;;5091448;28;19922;-77
2021/03/26 13:07:34;;;;;;;;;;;18.40;60.80;;;;;;5078351;28;19924;-77
2021/03/26 13:10:06;;;;;;;;;;;18.30;58.60;;;;;;5099024;28;19920;-77
2021/03/26 13:12:34;;;;;;;;;;;17.90;59.90;;;;;;5096974;28;19912;-77
2021/03/26 13:15:04;;;;;;;;;;;17.70;61.70;;;;;;5093094;28;19931;-77
2021/03/26 13:17:30;;;;;;;;;;;17.40;59.70;;;;;;5083838;28;20051;-77
2021/03/26 13:20:02;;;;;;;;;;;17.10;59.00;;;;;;5107513;27;20732;-77
2021/03/26 13:22:30;;;;;;;;;;;16.90;62.00;;;;;;5097013;28;19920;-78
2021/03/26 13:25:13;;;;;;;;;;;16.90;63.10;;;;;;5094109;28;20411;-77
2021/03/26 13:27:38;;;;;;;;;;;17.00;64.80;;;;;;5093431;28;19930;-77
2021/03/26 13:30:10;;;;;;;;;;;16.90;60.60;;;;;;5092019;28;20256;-77
2021/03/26 13:32:58;;;;;;;;;;;16.70;60.90;;;;;;5094079;28;20004;-77
2021/03/26 13:35:25;;;;;;;;;;;16.60;62.80;;;;;;5094385;28;20506;-77
2021/03/26 13:37:52;;;;;;;;;;;16.70;62.10;;;;;;5077866;28;20284;-79
2021/03/26 13:40:19;;;;;;;;;;;16.60;60.60;;;;;;5093046;28;20004;-75
2021/03/26 13:42:49;;;;;;;;;;;16.60;60.70;;;;;;5090817;28;19916;-77
2021/03/26 13:45:21;;;;;;;;;;;16.60;61.60;;;;;;5095399;28;20176;-78
2021/03/26 13:47:56;;;;;;;;;;;16.70;60.80;;;;;;5092408;28;19919;-77
2021/03/26 13:50:44;;;;;;;;;;;16.80;60.80;;;;;;5096516;28;19920;-78
2021/03/26 13:53:29;;;;;;;;;;;16.80;62.30;;;;;;4388579;28;10001003;-87
2021/03/26 13:56:05;;;;;;;;;;;16.70;63.00;;;;;;5088624;28;20066;-77
2021/03/26 13:58:34;;;;;;;;;;;16.60;60.30;;;;;;5095407;28;20062;-77
2021/03/26 14:01:03;;;;;;;;;;;16.50;60.70;;;;;;5092878;28;20046;-77
2021/03/26 14:03:54;;;;;;;;;;;16.50;60.40;;;;;;5093972;28;19920;-77
2021/03/26 14:06:34;;;;;;;;;;;16.40;61.50;;;;;;5071559;28;20360;-77
2021/03/26 14:09:02;;;;;;;;;;;16.30;60.50;;;;;;5090696;28;19916;-77
2021/03/26 14:11:48;;;;;;;;;;;16.30;60.20;;;;;;5089381;28;19959;-77
2021/03/26 14:14:14;;;;;;;;;;;16.30;62.00;;;;;;5094320;27;19920;-77
2021/03/26 14:16:46;;;;;;;;;;;16.30;62.40;;;;;;4737831;28;10000132;-77
2021/03/26 14:19:17;;;;;;;;;;;16.30;61.10;;;;;;5090361;28;19981;-77
2021/03/26 14:21:54;;;;;;;;;;;16.30;61.60;;;;;;5096549;27;19967;-77
2021/03/26 14:24:36;;;;;;;;;;;16.30;60.30;;;;;;5094545;27;19923;-76
2021/03/26 14:27:02;;;;;;;;;;;16.30;62.30;;;;;;5087698;28;19982;-77
2021/03/26 14:29:31;;;;;;;;;;;16.40;61.50;;;;;;5089684;28;19973;-76
2021/03/26 14:32:05;;;;;;;;;;;16.40;61.20;;;;;;5101609;27;19915;-77
2021/03/26 14:34:33;;;;;;;;;;;16.40;60.10;;;;;;5090419;28;19961;-77
2021/03/26 14:37:03;;;;;;;;;;;16.50;62.00;;;;;;5088263;28;20376;-77
2021/03/26 14:39:30;;;;;;;;;;;16.60;61.40;;;;;;5097847;28;19991;-76
2021/03/26 14:42:21;;;;;;;;;;;16.60;61.60;;;;;;5091687;28;20113;-77
2021/03/26 14:44:57;;;;;;;;;;;16.60;61.20;;;;;;5090473;28;19928;-76
2021/03/26 14:47:32;;;;;;;;;;;16.60;62.20;;;;;;5094004;28;19949;-76
2021/03/26 14:50:04;;;;;;;;;;;16.60;58.60;;;;;;5090647;28;19949;-76
2021/03/26 14:52:29;;;;;;;;;;;16.50;59.20;;;;;;5091010;28;20356;-76
2021/03/26 14:55:18;;;;;;;;;;;16.40;61.30;;;;;;5088930;28;20060;-76